Time;durP1;ratioP1;P1;durP2;ratioP2;P2;SDS_P1;SDS_P2;PMS_P1;PMS_P2;Temp;Humidity;BMP_temperature;BMP_pressure;BME280_temperature;BME280_humidity;BME280_pressure;Samples;Min_cycle;Max_cycle;Signal;HPM_P1;HPM_P2
2023/08/18 00:01:15;;;;;;;30.80;22.75;;;18.80;99.90;;;;;;5011921;28;20171;-44
2023/08/18 00:03:40;;;;;;;31.90;25.77;;;18.70;99.90;;;;;;5009873;28;20536;-44
2023/08/18 00:06:06;;;;;;;25.70;22.90;;;18.70;99.90;;;;;;5010173;28;20586;-44
2023/08/18 00:08:31;;;;;;;36.53;26.35;;;18.80;99.90;;;;;;5012034;28;20210;-44
2023/08/18 00:10:57;;;;;;;33.67;25.63;;;18.60;99.90;;;;;;5014856;28;20179;-44
2023/08/18 00:13:23;;;;;;;35.13;25.02;;;18.60;99.90;;;;;;5014837;28;20730;-44
2023/08/18 00:15:48;;;;;;;35.13;26.13;;;18.70;99.90;;;;;;5015164;28;20257;-44
2023/08/18 00:18:14;;;;;;;36.35;25.52;;;18.70;99.90;;;;;;5013990;28;20163;-44
2023/08/18 00:20:40;;;;;;;30.48;24.73;;;18.60;99.90;;;;;;5015212;28;20225;-43
2023/08/18 00:23:05;;;;;;;31.77;26.13;;;18.70;99.90;;;;;;5015016;28;20168;-43
2023/08/18 00:25:31;;;;;;;37.55;26.15;;;18.70;99.90;;;;;;5013815;28;20168;-43
2023/08/18 00:27:56;;;;;;;37.00;26.40;;;18.60;99.90;;;;;;5034741;28;20171;-44
2023/08/18 00:30:24;;;;;;;35.55;27.17;;;18.70;99.90;;;;;;5034939;28;20667;-43
2023/08/18 00:32:50;;;;;;;41.13;27.83;;;18.70;99.90;;;;;;5034670;28;20170;-43
2023/08/18 00:35:16;;;;;;;34.92;27.48;;;18.60;99.90;;;;;;5035066;28;20203;-43
2023/08/18 00:37:42;;;;;;;36.58;27.48;;;18.50;99.90;;;;;;5034759;28;20530;-44
2023/08/18 00:40:09;;;;;;;35.50;27.40;;;18.60;99.90;;;;;;5034750;28;20229;-44
2023/08/18 00:42:35;;;;;;;37.38;27.33;;;18.60;99.90;;;;;;5034702;28;20186;-43
2023/08/18 00:45:00;;;;;;;37.45;28.58;;;18.50;99.90;;;;;;5034674;28;20257;-44
2023/08/18 00:47:26;;;;;;;32.97;27.67;;;18.60;99.90;;;;;;5034471;28;20254;-43
2023/08/18 00:49:53;;;;;;;39.80;28.80;;;18.50;99.90;;;;;;5034361;28;20178;-43
2023/08/18 00:52:18;;;;;;;38.15;28.23;;;18.50;99.90;;;;;;5034246;28;20213;-44
2023/08/18 00:54:48;;;;;;;38.45;29.27;;;18.50;99.90;;;;;;5033314;28;20172;-43
2023/08/18 00:57:14;;;;;;;36.05;28.98;;;18.50;99.90;;;;;;5034238;28;20183;-43
2023/08/18 00:59:41;;;;;;;35.95;27.92;;;18.50;99.90;;;;;;5034202;28;20175;-43
2023/08/18 01:02:06;;;;;;;34.70;27.48;;;18.80;99.90;;;;;;5034098;28;20647;-44
2023/08/18 01:04:32;;;;;;;34.80;26.23;;;18.50;99.90;;;;;;5034170;28;20187;-43
2023/08/18 01:06:58;;;;;;;38.67;27.95;;;18.30;99.90;;;;;;5032824;28;20167;-43
2023/08/18 01:09:24;;;;;;;35.03;26.63;;;18.20;99.90;;;;;;5033983;28;20178;-43
2023/08/18 01:12:14;;;;;;;38.10;26.85;;;18.30;99.90;;;;;;5033810;28;20159;-44
2023/08/18 01:14:59;;;;;;;37.55;27.83;;;18.20;99.90;;;;;;5033479;28;20178;-43
2023/08/18 01:17:51;;;;;;;37.00;26.85;;;18.20;99.90;;;;;;5034078;28;20217;-44
2023/08/18 01:20:18;;;;;;;37.60;28.40;;;18.30;99.90;;;;;;5032459;28;20181;-49
2023/08/18 01:22:48;;;;;;;38.45;30.33;;;18.30;99.90;;;;;;5034396;28;20182;-44
2023/08/18 01:25:14;;;;;;;39.15;28.65;;;18.20;99.90;;;;;;5033658;28;20167;-44
2023/08/18 01:27:39;;;;;;;43.25;31.75;;;18.20;99.90;;;;;;5033695;28;20650;-43
2023/08/18 01:30:06;;;;;;;44.40;31.38;;;18.20;99.90;;;;;;5033867;28;20175;-44
2023/08/18 01:32:40;;;;;;;39.05;29.42;;;18.20;99.90;;;;;;5033523;28;20172;-44
2023/08/18 01:35:07;;;;;;;44.22;30.67;;;18.30;99.90;;;;;;5033520;28;20260;-46
2023/08/18 01:37:34;;;;;;;48.35;31.20;;;18.30;99.90;;;;;;5033757;28;20167;-44
2023/08/18 01:40:00;;;;;;;35.17;28.80;;;18.20;99.90;;;;;;5031789;28;20658;-44
2023/08/18 01:42:27;;;;;;;35.65;29.10;;;18.30;99.90;;;;;;5033375;28;20186;-45
2023/08/18 01:44:59;;;;;;;41.63;28.42;;;18.30;99.90;;;;;;5033701;28;20665;-44
2023/08/18 01:47:24;;;;;;;45.10;30.15;;;18.30;99.90;;;;;;5033346;28;20164;-44
2023/08/18 01:49:50;;;;;;;44.85;29.23;;;18.20;99.90;;;;;;5033229;28;20662;-44
2023/08/18 01:52:15;;;;;;;42.55;28.88;;;18.20;99.90;;;;;;5033598;28;20166;-44
2023/08/18 01:54:41;;;;;;;41.47;28.58;;;18.30;99.90;;;;;;5033128;28;20249;-44
2023/08/18 01:57:08;;;;;;;40.58;28.70;;;18.30;99.90;;;;;;5016818;28;20271;-44
2023/08/18 01:59:34;;;;;;;39.08;28.67;;;18.20;99.90;;;;;;5013150;28;20175;-44
2023/08/18 02:01:59;;;;;;;43.50;28.05;;;18.10;99.90;;;;;;5013287;28;20180;-46
2023/08/18 02:04:25;;;;;;;41.30;27.60;;;18.20;99.90;;;;;;5013192;28;20175;-44
2023/08/18 02:06:50;;;;;;;41.17;28.48;;;18.20;99.90;;;;;;5013170;28;20247;-44
2023/08/18 02:09:16;;;;;;;38.40;27.63;;;18.20;99.90;;;;;;5013511;28;20176;-44
2023/08/18 02:11:41;;;;;;;39.78;26.92;;;18.10;99.90;;;;;;5013441;28;20176;-43
2023/08/18 02:14:07;;;;;;;38.22;26.05;;;18.20;99.90;;;;;;5012826;28;20216;-44
2023/08/18 02:16:32;;;;;;;42.35;26.88;;;18.20;99.90;;;;;;5012894;28;20549;-44
2023/08/18 02:18:58;;;;;;;36.03;26.00;;;18.20;99.90;;;;;;5013054;28;20739;-44
2023/08/18 02:21:23;;;;;;;35.90;25.52;;;18.20;99.90;;;;;;5012916;28;20535;-44
2023/08/18 02:23:49;;;;;;;39.45;25.83;;;18.10;99.90;;;;;;5012776;28;20648;-45
2023/08/18 02:26:15;;;;;;;41.50;26.02;;;18.10;99.90;;;;;;5025641;28;20640;-44
2023/08/18 02:28:40;;;;;;;36.58;26.25;;;18.10;99.90;;;;;;5032156;28;20194;-44
2023/08/18 02:31:07;;;;;;;34.15;26.10;;;18.10;99.90;;;;;;5032273;28;20163;-44
2023/08/18 02:33:34;;;;;;;35.40;25.05;;;18.00;99.90;;;;;;5032428;28;20182;-44
2023/08/18 02:36:00;;;;;;;36.55;24.73;;;18.00;99.90;;;;;;5032194;28;20591;-44
2023/08/18 02:38:27;;;;;;;39.75;25.50;;;18.10;99.90;;;;;;5032347;28;20172;-44
2023/08/18 02:40:52;;;;;;;39.70;25.48;;;18.00;99.90;;;;;;5032289;28;20167;-44
2023/08/18 02:43:18;;;;;;;36.05;25.23;;;18.20;99.90;;;;;;5032236;28;20646;-44
2023/08/18 02:45:44;;;;;;;35.60;25.90;;;18.20;99.90;;;;;;5032793;28;20178;-44
2023/08/18 02:48:13;;;;;;;37.88;24.52;;;18.20;99.90;;;;;;5031943;28;20171;-43
2023/08/18 02:50:39;;;;;;;37.42;26.25;;;18.10;99.90;;;;;;5032396;28;20175;-45
2023/08/18 02:53:06;;;;;;;42.78;26.17;;;18.20;99.90;;;;;;5032037;28;20167;-44
2023/08/18 02:55:34;;;;;;;43.47;25.83;;;18.10;99.90;;;;;;5025483;28;20211;-44
2023/08/18 02:58:03;;;;;;;41.05;26.98;;;18.20;99.90;;;;;;5012383;28;20227;-45
2023/08/18 03:00:28;;;;;;;38.90;25.27;;;18.20;99.90;;;;;;5012445;28;20230;-44
2023/08/18 03:02:54;;;;;;;39.92;25.00;;;18.20;99.90;;;;;;5012189;28;20172;-46
2023/08/18 03:05:20;;;;;;;42.20;25.77;;;18.20;99.90;;;;;;5012250;28;20636;-43
2023/08/18 03:07:45;;;;;;;42.03;26.60;;;18.20;99.90;;;;;;5012509;28;20275;-45
2023/08/18 03:10:11;;;;;;;47.25;25.58;;;18.10;99.90;;;;;;5012086;28;20663;-45
2023/08/18 03:12:36;;;;;;;39.88;26.05;;;18.20;99.90;;;;;;5011874;28;20671;-44
2023/08/18 03:15:02;;;;;;;42.92;25.40;;;18.10;99.90;;;;;;5011869;28;20249;-44
2023/08/18 03:17:28;;;;;;;43.65;27.00;;;18.10;99.90;;;;;;5011952;28;20167;-46
2023/08/18 03:19:53;;;;;;;45.72;27.48;;;18.10;99.90;;;;;;5011879;28;20230;-44
2023/08/18 03:22:19;;;;;;;45.35;26.45;;;18.20;99.90;;;;;;5011925;28;20176;-43
2023/08/18 03:24:44;;;;;;;43.53;24.15;;;18.20;99.90;;;;;;5015508;28;20232;-47
2023/08/18 03:27:10;;;;;;;43.35;26.55;;;18.20;99.90;;;;;;5031521;28;20261;-44
2023/08/18 03:29:35;;;;;;;44.03;25.48;;;18.20;99.90;;;;;;5031554;28;20557;-44
2023/08/18 03:32:01;;;;;;;41.38;26.17;;;18.10;99.90;;;;;;5031535;28;20566;-42
2023/08/18 03:34:26;;;;;;;40.97;26.15;;;18.20;99.90;;;;;;5031478;28;20538;-42
2023/08/18 03:36:52;;;;;;;45.75;26.90;;;18.20;99.90;;;;;;5031423;28;20337;-42
2023/08/18 03:39:17;;;;;;;43.63;25.58;;;18.20;99.90;;;;;;5031372;28;20175;-44
2023/08/18 03:41:43;;;;;;;37.58;23.75;;;18.10;99.90;;;;;;5031758;28;20179;-51
2023/08/18 03:44:08;;;;;;;45.67;25.40;;;18.10;99.90;;;;;;5035274;28;20166;-45
2023/08/18 03:46:34;;;;;;;38.47;25.35;;;18.10;99.90;;;;;;5038091;28;20177;-46
2023/08/18 03:49:00;;;;;;;38.53;25.52;;;18.20;99.90;;;;;;5037933;28;20221;-49
2023/08/18 03:51:26;;;;;;;44.38;26.42;;;18.20;99.90;;;;;;5037890;28;20178;-46
2023/08/18 03:53:51;;;;;;;42.78;25.23;;;18.20;99.90;;;;;;5037811;28;20217;-50
2023/08/18 03:56:17;;;;;;;45.22;26.23;;;17.60;99.90;;;;;;5021528;28;20211;-47
2023/08/18 03:58:43;;;;;;;44.08;25.20;;;18.10;99.90;;;;;;5018437;28;20199;-47
2023/08/18 04:01:09;;;;;;;39.17;26.75;;;18.10;99.90;;;;;;5018004;28;20225;-46
2023/08/18 04:03:36;;;;;;;41.10;24.98;;;18.00;99.90;;;;;;5018267;28;20565;-50
2023/08/18 04:06:03;;;;;;;43.83;27.05;;;18.10;99.90;;;;;;5017962;28;20521;-46
2023/08/18 04:08:30;;;;;;;43.90;27.67;;;18.10;99.90;;;;;;5018000;28;20207;-51
2023/08/18 04:10:56;;;;;;;44.55;26.63;;;18.20;99.90;;;;;;5018033;28;20178;-50
2023/08/18 04:13:22;;;;;;;45.17;27.13;;;18.10;99.90;;;;;;5017840;28;20211;-50
2023/08/18 04:15:47;;;;;;;41.75;26.73;;;18.20;99.90;;;;;;5017919;28;20212;-52
2023/08/18 04:18:13;;;;;;;37.33;26.10;;;18.10;99.90;;;;;;5018238;28;20168;-49
2023/08/18 04:20:38;;;;;;;44.38;28.15;;;18.20;99.90;;;;;;5017765;28;20176;-47
2023/08/18 04:23:04;;;;;;;41.20;27.35;;;18.20;99.90;;;;;;5018000;28;20202;-46
2023/08/18 04:25:29;;;;;;;46.95;28.67;;;18.30;99.90;;;;;;5030925;28;20190;-50
2023/08/18 04:27:56;;;;;;;53.25;29.63;;;18.30;99.90;;;;;;5037424;28;20534;-47
2023/08/18 04:30:21;;;;;;;66.05;30.15;;;18.20;99.90;;;;;;5037375;28;20191;-46
2023/08/18 04:32:47;;;;;;;61.15;28.80;;;18.30;99.90;;;;;;5037553;28;20654;-50
2023/08/18 04:35:13;;;;;;;52.22;31.13;;;18.20;99.90;;;;;;5037932;28;20202;-49
2023/08/18 04:37:38;;;;;;;67.93;30.02;;;18.20;99.90;;;;;;5037667;28;20241;-48
2023/08/18 04:40:04;;;;;;;74.80;31.38;;;18.30;99.90;;;;;;5037321;28;20171;-49
2023/08/18 04:42:30;;;;;;;74.93;30.15;;;18.30;99.90;;;;;;5037258;28;20536;-47
2023/08/18 04:44:56;;;;;;;76.75;31.55;;;18.20;99.90;;;;;;5037441;28;20171;-50
2023/08/18 04:47:21;;;;;;;122.07;28.95;;;18.30;99.90;;;;;;5037459;28;20250;-50
2023/08/18 04:49:47;;;;;;;93.63;30.35;;;18.30;99.90;;;;;;5037400;28;20258;-50
2023/08/18 04:52:14;;;;;;;149.25;32.28;;;18.20;99.90;;;;;;5036464;28;20202;-50
2023/08/18 04:54:39;;;;;;;77.15;30.42;;;18.30;99.90;;;;;;5035996;28;20171;-49
2023/08/18 04:57:05;;;;;;;122.70;30.05;;;18.30;99.90;;;;;;5034192;28;20783;-52
2023/08/18 04:59:30;;;;;;;166.77;31.23;;;18.30;99.90;;;;;;5034467;28;20522;-47
2023/08/18 05:01:56;;;;;;;164.57;30.77;;;18.30;99.90;;;;;;5034137;28;20171;-50
2023/08/18 05:04:22;;;;;;;112.95;29.20;;;18.30;99.90;;;;;;5034188;28;20253;-48
2023/08/18 05:06:47;;;;;;;90.38;31.02;;;18.20;99.90;;;;;;5033980;28;20268;-52
2023/08/18 05:09:13;;;;;;;137.40;30.88;;;18.40;99.90;;;;;;5034419;28;20175;-48
2023/08/18 05:11:38;;;;;;;72.28;29.40;;;18.30;99.90;;;;;;5033964;28;20167;-47
2023/08/18 05:14:04;;;;;;;95.53;30.23;;;18.40;99.90;;;;;;5033713;28;20211;-49
2023/08/18 05:16:30;;;;;;;123.45;31.00;;;18.30;99.90;;;;;;5033751;28;20203;-47
2023/08/18 05:18:55;;;;;;;200.43;32.65;;;18.40;99.90;;;;;;5033847;28;20205;-50
2023/08/18 05:21:21;;;;;;;186.40;30.83;;;18.30;99.90;;;;;;5032401;28;20601;-50
2023/08/18 05:23:47;;;;;;;86.72;32.08;;;18.30;99.90;;;;;;5032769;28;20168;-49
2023/08/18 05:26:13;;;;;;;64.93;29.65;;;18.50;99.90;;;;;;5033158;28;20186;-48
2023/08/18 05:28:39;;;;;;;99.13;29.73;;;18.40;99.90;;;;;;5032020;28;20211;-48
2023/08/18 05:31:07;;;;;;;82.47;31.65;;;18.50;99.90;;;;;;5033268;28;20629;-48
2023/08/18 05:33:32;;;;;;;84.72;31.85;;;18.50;99.90;;;;;;5033220;28;20203;-48
2023/08/18 05:35:59;;;;;;;91.97;30.05;;;18.70;99.90;;;;;;5033274;28;20234;-49
2023/08/18 05:38:26;;;;;;;76.90;28.40;;;18.70;99.90;;;;;;5033160;28;20212;-50
2023/08/18 05:40:53;;;;;;;77.25;28.30;;;18.50;99.90;;;;;;5033391;28;20203;-47
2023/08/18 05:43:19;;;;;;;90.72;31.15;;;18.60;99.90;;;;;;5033051;28;20171;-51
2023/08/18 05:45:46;;;;;;;77.82;33.13;;;18.50;99.90;;;;;;5033452;28;20530;-52
2023/08/18 05:48:12;;;;;;;72.35;31.40;;;18.60;99.90;;;;;;5033717;28;20572;-48
2023/08/18 05:50:38;;;;;;;73.78;32.58;;;18.50;99.90;;;;;;5033066;28;20170;-53
2023/08/18 05:53:04;;;;;;;58.00;30.83;;;18.60;99.90;;;;;;5032684;28;20175;-52
2023/08/18 05:55:30;;;;;;;57.25;31.65;;;18.60;99.90;;;;;;5032845;28;20207;-51
2023/08/18 05:58:02;;;;;;;73.53;33.38;;;18.80;99.90;;;;;;5032679;28;20194;-48
2023/08/18 06:00:29;;;;;;;55.38;33.17;;;18.70;99.90;;;;;;5032818;28;20218;-52
2023/08/18 06:02:55;;;;;;;63.47;32.97;;;18.70;99.90;;;;;;5032724;28;20171;-49
2023/08/18 06:05:21;;;;;;;56.10;34.00;;;18.80;99.90;;;;;;5032698;28;20225;-50
2023/08/18 06:07:46;;;;;;;52.45;33.50;;;18.80;99.90;;;;;;5031906;28;20639;-47
2023/08/18 06:10:12;;;;;;;53.83;34.50;;;19.10;99.90;;;;;;5033141;28;20171;-48
2023/08/18 06:12:38;;;;;;;49.78;32.03;;;19.00;99.90;;;;;;5032365;28;20227;-50
2023/08/18 06:15:05;;;;;;;66.55;35.33;;;19.10;99.90;;;;;;5031164;28;20178;-50
2023/08/18 06:17:31;;;;;;;60.78;34.40;;;19.00;99.90;;;;;;5032399;28;20175;-52
2023/08/18 06:19:57;;;;;;;56.80;33.03;;;19.20;99.90;;;;;;5032541;28;20177;-50
2023/08/18 06:22:23;;;;;;;66.47;33.97;;;19.20;99.90;;;;;;5031166;28;20206;-49
2023/08/18 06:24:49;;;;;;;51.25;34.13;;;19.20;99.90;;;;;;5032364;28;20164;-50
2023/08/18 06:27:14;;;;;;;53.08;32.05;;;19.30;99.90;;;;;;5019283;28;20191;-52
2023/08/18 06:29:40;;;;;;;45.55;32.40;;;19.30;99.90;;;;;;5012449;28;20574;-52
2023/08/18 06:32:05;;;;;;;37.15;27.23;;;19.30;99.90;;;;;;5012562;28;20179;-52
2023/08/18 06:34:31;;;;;;;32.47;25.90;;;19.40;99.90;;;;;;5012646;28;20215;-51
2023/08/18 06:36:56;;;;;;;41.72;25.90;;;19.40;99.90;;;;;;5027742;28;20219;-48
2023/08/18 06:39:22;;;;;;;33.90;27.45;;;19.50;99.90;;;;;;5012671;28;20171;-47
2023/08/18 06:41:47;;;;;;;45.53;25.92;;;19.50;99.90;;;;;;5011239;28;20656;-50
2023/08/18 06:44:13;;;;;;;34.50;25.08;;;19.60;99.90;;;;;;5012957;28;20168;-50
2023/08/18 06:46:39;;;;;;;53.42;23.05;;;19.50;99.90;;;;;;5012461;28;20183;-50
2023/08/18 06:49:04;;;;;;;31.50;23.27;;;19.50;99.90;;;;;;5011405;28;20172;-49
2023/08/18 06:51:30;;;;;;;28.73;21.63;;;19.40;99.90;;;;;;5011115;28;20175;-48
2023/08/18 06:53:56;;;;;;;34.47;20.65;;;19.50;99.90;;;;;;5012379;28;20226;-48
2023/08/18 06:56:21;;;;;;;73.00;21.27;;;19.40;99.90;;;;;;5021490;28;20206;-49
2023/08/18 06:58:47;;;;;;;30.83;21.60;;;19.50;99.90;;;;;;5031625;28;20180;-50
2023/08/18 07:01:12;;;;;;;26.75;21.13;;;19.40;99.90;;;;;;5032399;28;20194;-49
2023/08/18 07:03:38;;;;;;;24.77;21.25;;;19.40;99.90;;;;;;5031864;28;20628;-50
2023/08/18 07:06:04;;;;;;;25.00;21.15;;;19.60;99.90;;;;;;5031805;28;20616;-50
2023/08/18 07:08:29;;;;;;;25.40;21.17;;;19.60;99.90;;;;;;5031731;28;20246;-49
2023/08/18 07:10:55;;;;;;;22.58;20.08;;;19.60;99.90;;;;;;5031760;28;20167;-50
2023/08/18 07:13:21;;;;;;;22.88;19.52;;;19.70;99.90;;;;;;5031517;28;20648;-50
2023/08/18 07:15:47;;;;;;;24.00;19.63;;;19.90;99.90;;;;;;5031634;28;20294;-49
2023/08/18 07:18:13;;;;;;;19.25;17.25;;;19.80;99.90;;;;;;5031296;28;20206;-50
2023/08/18 07:20:41;;;;;;;20.80;18.60;;;19.90;99.90;;;;;;5031640;28;20254;-50
2023/08/18 07:23:06;;;;;;;20.30;18.10;;;20.00;99.90;;;;;;5031634;28;20170;-50
2023/08/18 07:25:32;;;;;;;20.77;17.75;;;19.90;99.90;;;;;;5028715;28;20171;-49
2023/08/18 07:27:57;;;;;;;20.00;17.88;;;20.10;99.90;;;;;;5011844;28;20660;-47
2023/08/18 07:30:23;;;;;;;20.30;17.85;;;20.20;99.90;;;;;;5011828;28;20688;-48
2023/08/18 07:32:49;;;;;;;22.02;18.77;;;20.10;99.90;;;;;;5011966;28;20172;-49
2023/08/18 07:35:14;;;;;;;20.10;18.10;;;20.20;99.90;;;;;;5012095;28;20200;-50
2023/08/18 07:37:40;;;;;;;20.75;18.65;;;20.40;99.90;;;;;;5011613;28;20218;-49
2023/08/18 07:40:09;;;;;;;20.30;18.20;;;20.40;99.90;;;;;;5012688;28;20168;-50
2023/08/18 07:42:36;;;;;;;20.77;18.67;;;20.50;99.90;;;;;;5011856;28;20209;-50
2023/08/18 07:45:02;;;;;;;22.23;20.05;;;20.60;99.90;;;;;;5011611;28;20164;-50
2023/08/18 07:47:28;;;;;;;21.15;18.80;;;20.80;99.90;;;;;;5011820;28;20250;-50
2023/08/18 07:49:54;;;;;;;20.30;17.98;;;20.90;99.90;;;;;;5011673;28;20215;-47
2023/08/18 07:52:19;;;;;;;22.27;19.80;;;21.00;99.90;;;;;;5011514;28;20171;-50
2023/08/18 07:54:45;;;;;;;22.92;20.63;;;21.10;99.90;;;;;;5012271;28;20188;-49
2023/08/18 07:57:10;;;;;;;23.23;20.75;;;19.50;99.90;;;;;;5027906;28;20674;-50
2023/08/18 07:59:36;;;;;;;22.55;20.30;;;21.50;99.90;;;;;;5031333;28;20654;-48
2023/08/18 08:02:02;;;;;;;24.23;21.52;;;21.70;99.90;;;;;;5031205;28;20529;-47
2023/08/18 08:04:28;;;;;;;24.52;21.85;;;21.70;99.90;;;;;;5031127;28;20646;-49
2023/08/18 08:06:56;;;;;;;23.48;21.08;;;21.70;99.90;;;;;;5031076;28;20270;-50
2023/08/18 08:09:25;;;;;;;26.15;23.42;;;21.80;99.90;;;;;;5031151;28;20175;-49
2023/08/18 08:11:51;;;;;;;22.70;20.40;;;21.80;99.90;;;;;;5030968;28;20540;-50
2023/08/18 08:14:20;;;;;;;20.98;18.92;;;22.00;99.90;;;;;;5031121;28;20192;-48
2023/08/18 08:16:46;;;;;;;24.10;20.13;;;22.20;99.90;;;;;;5030982;28;20213;-48
2023/08/18 08:19:13;;;;;;;20.02;18.13;;;22.30;99.90;;;;;;5031498;28;20242;-50
2023/08/18 08:21:41;;;;;;;20.67;18.48;;;22.40;99.90;;;;;;5031293;28;20171;-50
2023/08/18 08:24:08;;;;;;;21.83;19.58;;;22.60;99.90;;;;;;5030986;28;20160;-51
2023/08/18 08:26:34;;;;;;;19.27;17.27;;;22.60;99.90;;;;;;5030445;28;20255;-50
2023/08/18 08:28:59;;;;;;;18.73;16.38;;;22.70;99.90;;;;;;5030640;28;20581;-49
2023/08/18 08:31:25;;;;;;;17.33;14.98;;;22.80;99.90;;;;;;5034563;28;20167;-50
2023/08/18 08:33:50;;;;;;;18.65;15.02;;;22.90;99.90;;;;;;5034735;28;20182;-50
2023/08/18 08:36:16;;;;;;;24.60;14.48;;;23.20;99.90;;;;;;5034663;28;20692;-50
2023/08/18 08:38:42;;;;;;;16.75;14.95;;;23.30;99.90;;;;;;5035083;28;20242;-49
2023/08/18 08:41:08;;;;;;;15.40;13.98;;;23.50;99.90;;;;;;5034997;28;20167;-50
2023/08/18 08:43:34;;;;;;;15.80;13.45;;;23.50;99.90;;;;;;5034375;28;20564;-51
2023/08/18 08:46:00;;;;;;;15.20;13.77;;;23.60;99.90;;;;;;5034472;28;20162;-50
2023/08/18 08:48:32;;;;;;;15.02;13.52;;;23.70;99.90;;;;;;5034353;28;20175;-50
2023/08/18 08:51:02;;;;;;;17.42;13.23;;;23.60;99.90;;;;;;5034343;28;20203;-49
2023/08/18 08:53:35;;;;;;;15.80;14.30;;;23.60;99.90;;;;;;5034348;28;20170;-49
2023/08/18 08:56:02;;;;;;;16.52;14.80;;;23.70;99.90;;;;;;5027887;28;20218;-50
2023/08/18 08:58:31;;;;;;;16.70;14.88;;;23.90;99.90;;;;;;5014406;28;20693;-50
2023/08/18 09:00:59;;;;;;;16.63;15.02;;;24.00;99.90;;;;;;5014593;28;20187;-50
2023/08/18 09:03:25;;;;;;;17.92;15.30;;;24.00;99.90;;;;;;5014553;28;20539;-48
2023/08/18 09:05:50;;;;;;;17.20;15.43;;;24.00;99.90;;;;;;5014362;28;20159;-50
2023/08/18 09:08:16;;;;;;;22.42;15.48;;;24.20;99.90;;;;;;5014330;28;20175;-50
2023/08/18 09:10:43;;;;;;;17.15;15.45;;;24.10;99.90;;;;;;5014671;28;20191;-51
2023/08/18 09:13:09;;;;;;;16.33;14.77;;;24.30;99.90;;;;;;5013925;28;20221;-52
2023/08/18 09:15:34;;;;;;;14.88;13.38;;;24.30;99.90;;;;;;5014346;28;20204;-50
2023/08/18 09:18:03;;;;;;;16.58;13.98;;;24.40;99.90;;;;;;5020792;28;20568;-49
2023/08/18 09:20:29;;;;;;;14.43;13.02;;;24.20;99.90;;;;;;5032397;28;20183;-50
2023/08/18 09:22:56;;;;;;;13.50;12.15;;;24.60;99.90;;;;;;5032211;28;20206;-53
2023/08/18 09:25:21;;;;;;;16.00;12.45;;;24.40;99.90;;;;;;5031090;28;20197;-47
2023/08/18 09:27:47;;;;;;;17.00;11.77;;;24.50;99.90;;;;;;5031969;28;20619;-46
2023/08/18 09:30:13;;;;;;;13.15;11.73;;;24.70;99.90;;;;;;5032611;28;20175;-45
2023/08/18 09:32:38;;;;;;;12.63;11.45;;;24.80;99.90;;;;;;5031993;28;20576;-46
2023/08/18 09:35:10;;;;;;;13.43;11.02;;;24.80;99.90;;;;;;5031940;28;20915;-47
2023/08/18 09:37:36;;;;;;;12.88;11.57;;;25.20;99.90;;;;;;5032188;28;20170;-48
2023/08/18 09:40:02;;;;;;;12.93;11.63;;;25.20;99.90;;;;;;5031985;28;20178;-47
2023/08/18 09:42:28;;;;;;;13.40;11.82;;;25.10;99.90;;;;;;5030797;28;20281;-47
2023/08/18 09:44:54;;;;;;;11.48;10.32;;;25.30;99.90;;;;;;5031767;28;20177;-47
2023/08/18 09:47:23;;;;;;;12.98;11.77;;;25.40;99.90;;;;;;5031730;28;20179;-47
2023/08/18 09:49:50;;;;;;;15.45;13.80;;;25.20;99.90;;;;;;5031878;28;20171;-46
2023/08/18 09:52:18;;;;;;;13.15;11.85;;;25.10;99.90;;;;;;5031631;28;20240;-47
2023/08/18 09:54:50;;;;;;;13.52;12.13;;;25.30;99.90;;;;;;5032099;28;20518;-52
2023/08/18 09:57:22;;;;;;;13.45;12.00;;;25.60;99.90;;;;;;5011858;28;20234;-49
2023/08/18 09:59:55;;;;;;;13.45;12.15;;;25.50;99.90;;;;;;5011638;28;20174;-52
2023/08/18 10:02:26;;;;;;;16.52;14.93;;;25.70;99.90;;;;;;5011865;28;20182;-52
2023/08/18 10:04:53;;;;;;;15.55;13.93;;;25.80;99.90;;;;;;5012078;28;20237;-53
2023/08/18 10:07:20;;;;;;;17.45;14.02;;;25.90;99.90;;;;;;5011495;28;20168;-53
2023/08/18 10:09:47;;;;;;;22.33;18.80;;;26.00;99.90;;;;;;5011504;28;20164;-52
2023/08/18 10:12:13;;;;;;;21.23;18.92;;;26.10;99.90;;;;;;5011807;28;20215;-52
2023/08/18 10:14:39;;;;;;;21.88;19.65;;;25.90;99.90;;;;;;5011770;28;20537;-52
2023/08/18 10:17:06;;;;;;;23.45;19.77;;;26.40;99.90;;;;;;5011595;28;20328;-51
2023/08/18 10:20:04;;;;;;;24.08;21.05;;;26.50;99.90;;;;;;5011365;28;20623;-52
2023/08/18 10:22:33;;;;;;;25.17;22.00;;;26.50;99.90;;;;;;4999576;28;20187;-49
2023/08/18 10:24:59;;;;;;;24.58;21.98;;;26.30;99.90;;;;;;5015967;28;20216;-51
2023/08/18 10:27:27;;;;;;;23.73;20.17;;;26.20;99.90;;;;;;5029731;28;20510;-52
2023/08/18 10:29:59;;;;;;;23.83;19.55;;;26.40;99.90;;;;;;5030750;28;20654;-50
2023/08/18 10:32:25;;;;;;;22.73;20.02;;;26.80;99.90;;;;;;5030953;28;20173;-51
2023/08/18 10:34:51;;;;;;;23.60;20.00;;;26.70;99.90;;;;;;5030836;28;20171;-52
2023/08/18 10:37:20;;;;;;;26.90;21.60;;;26.50;99.90;;;;;;5030164;28;20210;-53
2023/08/18 10:39:48;;;;;;;24.50;20.20;;;26.60;99.90;;;;;;5030285;28;20309;-51
2023/08/18 10:42:15;;;;;;;23.20;19.88;;;26.60;99.90;;;;;;5030486;28;20191;-47
2023/08/18 10:44:59;;;;;;;24.00;20.58;;;26.70;99.90;;;;;;5030990;28;20170;-46
2023/08/18 10:47:34;;;;;;;22.27;19.85;;;26.90;99.90;;;;;;5030327;28;20170;-46
2023/08/18 10:50:06;;;;;;;22.17;17.90;;;26.60;99.90;;;;;;5030333;28;20159;-48
2023/08/18 10:52:32;;;;;;;24.70;20.35;;;26.60;99.90;;;;;;5030043;28;20163;-47
2023/08/18 10:54:59;;;;;;;19.77;17.13;;;26.50;99.90;;;;;;5025772;28;20180;-47
2023/08/18 10:57:24;;;;;;;19.92;16.85;;;26.50;99.90;;;;;;5010566;28;20182;-46
2023/08/18 10:59:50;;;;;;;19.60;17.35;;;26.70;99.90;;;;;;5010495;28;20171;-46
2023/08/18 11:02:17;;;;;;;17.63;15.93;;;26.80;99.90;;;;;;5010375;28;20579;-46
2023/08/18 11:04:42;;;;;;;18.65;16.85;;;26.90;99.90;;;;;;5010811;28;20189;-46
2023/08/18 11:07:08;;;;;;;16.42;14.82;;;27.00;99.90;;;;;;5010191;28;20631;-47
2023/08/18 11:09:36;;;;;;;18.58;15.75;;;26.90;99.90;;;;;;5010494;28;20190;-46
2023/08/18 11:12:03;;;;;;;17.98;16.17;;;27.00;99.90;;;;;;5010107;28;20168;-47
2023/08/18 11:14:29;;;;;;;18.08;15.85;;;27.00;99.90;;;;;;5010374;28;20181;-46
2023/08/18 11:16:55;;;;;;;17.90;14.80;;;27.10;99.90;;;;;;5010373;28;20219;-47
2023/08/18 11:19:20;;;;;;;17.90;16.00;;;27.50;99.90;;;;;;5010176;28;20619;-46
2023/08/18 11:21:46;;;;;;;17.65;15.93;;;27.30;99.90;;;;;;5009814;28;20179;-46
2023/08/18 11:24:12;;;;;;;16.98;14.77;;;27.40;99.90;;;;;;5012490;28;20526;-45
2023/08/18 11:26:39;;;;;;;16.23;14.52;;;27.50;99.90;;;;;;5028239;28;20554;-46
2023/08/18 11:29:08;;;;;;;17.00;14.88;;;27.60;99.90;;;;;;5030057;28;20181;-48
2023/08/18 11:31:33;;;;;;;16.52;14.23;;;27.80;99.90;;;;;;5029766;28;20577;-47
2023/08/18 11:33:59;;;;;;;16.45;14.80;;;28.00;99.90;;;;;;5029580;28;20171;-46
2023/08/18 11:36:32;;;;;;;16.52;14.95;;;27.80;99.90;;;;;;5027643;28;20325;-46
2023/08/18 11:39:07;;;;;;;14.90;13.38;;;28.00;99.90;;;;;;5028430;28;20167;-47
2023/08/18 11:41:41;;;;;;;16.55;15.05;;;27.80;99.90;;;;;;5028376;28;20285;-47
2023/08/18 11:44:07;;;;;;;15.40;13.07;;;27.80;99.90;;;;;;5029568;28;20159;-46
2023/08/18 11:46:37;;;;;;;16.10;14.13;;;27.70;99.90;;;;;;5029824;28;20181;-46
2023/08/18 11:49:24;;;;;;;11.88;10.65;;;27.80;99.90;;;;;;5029542;28;20175;-45
2023/08/18 11:51:58;;;;;;;10.25;9.25;;;28.00;99.90;;;;;;5029280;28;20178;-46
2023/08/18 11:54:25;;;;;;;9.88;8.90;;;28.00;99.90;;;;;;5029543;28;20159;-46
2023/08/18 11:56:51;;;;;;;9.43;8.43;;;28.20;99.90;;;;;;5029741;28;20206;-46
2023/08/18 11:59:20;;;;;;;10.05;8.40;;;28.60;99.90;;;;;;5029379;28;20249;-46
2023/08/18 12:01:47;;;;;;;9.02;8.18;;;28.50;99.90;;;;;;5029430;28;20186;-46
2023/08/18 12:04:12;;;;;;;9.73;8.82;;;28.60;99.90;;;;;;5029791;28;20171;-45
2023/08/18 12:06:39;;;;;;;8.73;7.97;;;28.20;99.90;;;;;;5032343;28;20174;-47
2023/08/18 12:09:12;;;;;;;8.98;8.05;;;28.50;99.90;;;;;;5033213;28;20669;-51
2023/08/18 12:11:38;;;;;;;9.57;8.70;;;28.60;99.90;;;;;;5033347;28;20305;-51
2023/08/18 12:14:04;;;;;;;9.25;8.27;;;28.90;99.90;;;;;;5033099;28;20244;-46
2023/08/18 12:16:30;;;;;;;9.80;8.80;;;28.90;99.90;;;;;;5033385;28;20203;-51
2023/08/18 12:18:56;;;;;;;8.50;7.80;;;28.70;99.90;;;;;;5032919;28;20173;-48
2023/08/18 12:21:22;;;;;;;9.00;7.88;;;28.70;99.90;;;;;;5033426;28;20254;-52
2023/08/18 12:23:47;;;;;;;9.90;7.88;;;29.10;99.90;;;;;;5033125;28;20163;-49
2023/08/18 12:26:14;;;;;;;10.82;8.50;;;29.10;99.90;;;;;;5032681;28;20175;-50